Time;durP1;ratioP1;P1;durP2;ratioP2;P2;SDS_P1;SDS_P2;PMS_P1;PMS_P2;Temp;Humidity;BMP_temperature;BMP_pressure;BME280_temperature;BME280_humidity;BME280_pressure;Samples;Min_cycle;Max_cycle;Signal;HPM_P1;HPM_P2
2024/04/15 10:03:40;;;;;;;4.90;3.50;;;;;;;12.55;100.00;98428.10;102267;1295;635861;-70
2024/04/15 10:06:11;;;;;;;6.40;3.80;;;;;;;12.50;100.00;98436.55;104724;1271;96486;-69
2024/04/15 10:08:39;;;;;;;7.70;4.20;;;;;;;12.38;100.00;98448.10;105269;1260;95363;-69
2024/04/15 10:11:09;;;;;;;6.20;4.30;;;;;;;12.33;100.00;98448.86;105820;1254;108576;-72
2024/04/15 10:13:37;;;;;;;7.70;4.60;;;;;;;12.40;100.00;98452.34;107474;1254;95333;-72
2024/04/15 10:16:05;;;;;;;7.30;3.90;;;;;;;12.50;100.00;98451.81;105263;1254;171525;-71
2024/04/15 10:18:54;;;;;;;8.70;4.10;;;;;;;12.52;100.00;98456.46;106536;1257;95255;-77
2024/04/15 10:21:21;;;;;;;;;;;;;;;12.54;100.00;98448.63;105577;1253;95235;-76
2024/04/15 10:23:49;;;;;;;11.10;3.80;;;;;;;12.52;100.00;98446.50;105356;1254;108525;-81
2024/04/15 10:26:20;;;;;;;8.40;3.90;;;;;;;12.59;100.00;98441.99;105502;1254;95488;-79
2024/04/15 10:28:48;;;;;;;6.10;3.80;;;;;;;12.67;100.00;98437.33;105961;1257;107970;-75
2024/04/15 10:31:18;;;;;;;8.00;5.20;;;;;;;12.68;100.00;98436.35;105491;1253;97536;-76
2024/04/15 10:33:50;;;;;;;6.50;4.40;;;;;;;12.64;100.00;98434.22;105256;1255;97158;-77
2024/04/15 10:36:28;;;;;;;6.60;4.30;;;;;;;12.60;100.00;98431.75;105267;1257;109941;-77
2024/04/15 10:39:03;;;;;;;7.20;4.80;;;;;;;12.55;100.00;98433.66;106435;1254;97944;-80
2024/04/15 10:41:32;;;;;;;7.30;4.10;;;;;;;12.49;100.00;98446.55;105974;1254;105832;-86
2024/04/15 10:44:00;;;;;;;10.00;4.60;;;;;;;12.43;100.00;98461.00;105824;1257;96802;-72
2024/04/15 10:46:28;;;;;;;8.30;4.70;;;;;;;12.38;100.00;98477.07;105458;1257;96505;-80
2024/04/15 10:48:56;;;;;;;7.00;4.60;;;;;;;12.31;100.00;98485.39;105892;1255;109948;-82
2024/04/15 10:51:24;;;;;;;8.60;4.60;;;;;;;12.24;100.00;98484.91;105707;1254;96610;-79
2024/04/15 10:54:08;;;;;;;9.80;4.90;;;;;;;12.20;100.00;98480.45;106137;1254;105422;-83
2024/04/15 10:56:37;;;;;;;6.80;4.90;;;;;;;12.14;100.00;98483.42;105405;1254;96671;-82
2024/04/15 10:59:15;;;;;;;7.20;4.70;;;;;;;12.08;100.00;98455.70;105549;1262;96687;-76
2024/04/15 11:01:46;;;;;;;8.80;4.90;;;;;;;12.04;100.00;98443.66;107082;1254;108688;-76
2024/04/15 11:04:14;;;;;;;8.20;5.10;;;;;;;11.98;100.00;98448.25;104957;1254;96727;-75
2024/04/15 11:06:47;;;;;;;8.60;4.80;;;;;;;11.94;100.00;98462.98;105108;1261;107609;-75
2024/04/15 11:09:15;;;;;;;8.60;5.30;;;;;;;11.94;100.00;98486.66;105431;1257;96677;-76
2024/04/15 11:11:45;;;;;;;7.80;5.80;;;;;;;11.92;100.00;98508.96;105430;1257;97521;-75
2024/04/15 11:14:13;;;;;;;7.90;5.20;;;;;;;11.84;100.00;98518.55;105011;1257;109674;-74
2024/04/15 11:16:46;;;;;;;7.80;4.20;;;;;;;11.77;100.00;98494.62;108075;1253;95442;-77
2024/04/15 11:19:16;;;;;;;13.50;5.40;;;;;;;11.74;100.00;98455.80;105256;1257;107068;-75
2024/04/15 11:21:44;;;;;;;7.30;4.40;;;;;;;11.73;100.00;98431.89;105320;1258;96732;-78
2024/04/15 11:24:14;;;;;;;6.10;4.50;;;;;;;11.72;100.00;98425.48;106159;1258;96583;-79
2024/04/15 11:27:18;;;;;;;7.90;4.60;;;;;;;11.72;100.00;98433.98;105295;1257;109059;-83
2024/04/15 11:31:03;;;;;;;8.70;5.00;;;;;;;11.65;100.00;98448.81;106792;1260;96779;-79
2024/04/15 11:33:31;;;;;;;7.20;4.00;;;;;;;11.58;100.00;98441.55;106312;1254;107716;-76
2024/04/15 11:36:16;;;;;;;6.40;3.30;;;;;;;11.62;100.00;98395.02;105441;1259;98034;-76
2024/04/15 11:38:46;;;;;;;7.20;4.60;;;;;;;11.66;100.00;98411.95;106011;1262;96682;-70
2024/04/15 11:41:14;;;;;;;8.20;4.90;;;;;;;11.66;100.00;98433.63;105142;1254;110252;-70
2024/04/15 11:43:42;;;;;;;10.00;5.70;;;;;;;11.61;100.00;98419.09;105683;1257;97425;-69
2024/04/15 11:46:17;;;;;;;7.70;5.00;;;;;;;11.57;100.00;98419.69;106118;1254;107653;-70
2024/04/15 11:48:48;;;;;;;7.90;4.70;;;;;;;11.53;100.00;98430.85;105622;1257;96601;-70
2024/04/15 11:51:19;;;;;;;10.00;5.30;;;;;;;11.53;100.00;98430.80;105242;1259;97638;-70
2024/04/15 11:53:46;;;;;;;8.80;4.80;;;;;;;11.55;100.00;98416.09;105388;1257;109599;-71
2024/04/15 11:56:15;;;;;;;6.00;4.70;;;;;;;11.60;100.00;98404.28;105093;1266;97920;-68
2024/04/15 11:58:44;;;;;;;8.10;4.80;;;;;;;11.65;100.00;98398.49;105803;1254;107567;-68
2024/04/15 12:01:12;;;;;;;7.80;5.00;;;;;;;11.66;100.00;98422.95;106514;1253;96697;-71
2024/04/15 12:03:40;;;;;;;7.70;5.40;;;;;;;11.68;100.00;98423.16;105655;1257;96684;-69
2024/04/15 12:06:09;;;;;;;8.50;5.20;;;;;;;11.72;100.00;98434.67;105587;1256;109159;-69
2024/04/15 12:08:37;;;;;;;8.40;4.80;;;;;;;11.75;100.00;98431.41;105607;1254;96509;-69
2024/04/15 12:11:07;;;;;;;8.80;5.10;;;;;;;11.80;100.00;98423.93;105259;1259;106394;-69
2024/04/15 12:13:34;;;;;;;6.90;5.40;;;;;;;11.85;100.00;98421.83;105866;1254;96605;-68
2024/04/15 12:16:02;;;;;;;7.60;4.80;;;;;;;11.91;100.00;98423.23;106623;1254;96641;-69
2024/04/15 12:18:30;;;;;;;8.00;4.60;;;;;;;11.93;100.00;98423.63;105082;1254;108671;-67
2024/04/15 12:20:58;;;;;;;7.60;4.90;;;;;;;11.95;100.00;98417.56;105239;1254;97446;-67
2024/04/15 12:23:26;;;;;;;11.10;5.20;;;;;;;12.05;100.00;98409.82;107151;1254;107674;-68
2024/04/15 12:25:54;;;;;;;9.50;5.30;;;;;;;12.14;100.00;98418.23;105382;1259;96649;-69
2024/04/15 12:28:22;;;;;;;8.20;4.90;;;;;;;12.20;100.00;98417.57;106337;1253;97839;-72
2024/04/15 12:30:50;;;;;;;7.90;5.10;;;;;;;12.24;100.00;98406.36;106847;1255;109888;-69
2024/04/15 12:33:18;;;;;;;8.30;5.00;;;;;;;12.24;100.00;98396.57;105285;1256;97298;-69
2024/04/15 12:35:46;;;;;;;6.10;4.40;;;;;;;12.30;100.00;98383.19;105302;1258;107652;-68
2024/04/15 12:38:14;;;;;;;6.80;4.20;;;;;;;12.36;100.00;98362.04;105211;1257;96608;-69
2024/04/15 12:40:42;;;;;;;7.50;5.00;;;;;;;12.40;100.00;98334.19;105345;1255;96658;-72
2024/04/15 12:43:09;;;;;;;9.10;5.40;;;;;;;12.42;100.00;98322.78;105828;1254;109871;-68
2024/04/15 12:45:37;;;;;;;8.90;5.30;;;;;;;12.46;100.00;98303.37;105601;1258;96595;-68
2024/04/15 12:48:16;;;;;;;6.30;4.30;;;;;;;12.49;100.00;98294.21;105907;1255;109866;-68
2024/04/15 12:50:45;;;;;;;7.60;5.30;;;;;;;12.50;100.00;98288.03;105412;1254;96599;-69
2024/04/15 12:53:13;;;;;;;8.30;5.20;;;;;;;12.51;100.00;98289.19;105238;1254;97567;-68
2024/04/15 12:55:44;;;;;;;5.50;4.30;;;;;;;12.49;100.00;98290.60;105988;1257;109926;-70
2024/04/15 12:58:12;;;;;;;11.80;5.30;;;;;;;12.45;100.00;98290.60;105530;1255;96624;-70
2024/04/15 13:00:40;;;;;;;9.30;4.90;;;;;;;12.48;100.00;98287.64;105302;1258;108094;-70
2024/04/15 13:03:08;;;;;;;7.60;5.20;;;;;;;12.53;100.00;98288.14;105913;1257;96688;-70
2024/04/15 13:05:37;;;;;;;9.30;6.30;;;;;;;12.55;100.00;98286.04;105754;1254;96681;-69
2024/04/15 13:08:05;;;;;;;8.10;5.80;;;;;;;12.56;100.00;98298.39;105463;1257;109794;-68
2024/04/15 13:10:33;;;;;;;8.60;4.80;;;;;;;12.55;100.00;98295.81;105340;1258;96624;-69
2024/04/15 13:13:01;;;;;;;7.50;5.00;;;;;;;12.55;100.00;98290.45;105327;1256;106637;-71
2024/04/15 13:15:28;;;;;;;8.00;5.10;;;;;;;12.57;100.00;98287.79;106132;1257;97928;-68
2024/04/15 13:17:58;;;;;;;6.90;5.70;;;;;;;12.57;100.00;98287.02;104780;1255;97928;-72
2024/04/15 13:20:26;;;;;;;7.10;5.40;;;;;;;12.60;100.00;98282.19;105291;1257;109791;-70
2024/04/15 13:22:59;;;;;;;7.60;5.80;;;;;;;12.60;100.00;98276.14;105065;1256;97441;-69
2024/04/15 13:25:30;;;;;;;8.20;5.80;;;;;;;12.58;100.00;98273.98;105305;1254;106926;-72
2024/04/15 13:27:58;;;;;;;9.40;6.00;;;;;;;12.56;100.00;98269.02;105404;1258;97917;-72
2024/04/15 13:30:26;;;;;;;9.90;6.80;;;;;;;12.59;100.00;98265.55;104999;1257;96641;-68
2024/04/15 13:32:54;;;;;;;8.60;6.80;;;;;;;12.66;100.00;98259.34;105951;1254;110730;-70
2024/04/15 13:35:22;;;;;;;11.60;7.90;;;;;;;12.72;100.00;98262.73;105281;1257;96790;-70
2024/04/15 13:37:50;;;;;;;10.90;7.40;;;;;;;12.73;100.00;98256.59;105341;1270;107603;-70
2024/04/15 13:40:18;;;;;;;14.10;8.40;;;;;;;12.70;100.00;98251.17;105167;1257;96621;-71
2024/04/15 13:42:46;;;;;;;12.00;7.10;;;;;;;12.68;100.00;98253.63;105752;1257;96440;-70
2024/04/15 13:45:14;;;;;;;11.60;6.70;;;;;;;12.70;100.00;98253.70;105601;1261;109594;-69
2024/04/15 13:47:42;;;;;;;10.80;6.80;;;;;;;12.71;100.00;98251.82;105413;1254;96721;-69
2024/04/15 13:50:10;;;;;;;10.40;6.70;;;;;;;12.74;100.00;98250.63;105838;1254;107630;-71
2024/04/15 13:52:38;;;;;;;8.10;7.00;;;;;;;12.76;100.00;98246.35;105328;1257;96597;-71
2024/04/15 13:55:06;;;;;;;9.20;7.30;;;;;;;12.78;100.00;98240.48;105358;1255;97922;-70
2024/04/15 13:57:36;;;;;;;9.00;6.30;;;;;;;12.85;100.00;98232.83;105904;1254;110254;-72
2024/04/15 14:00:05;;;;;;;8.00;5.90;;;;;;;12.89;100.00;98223.23;107127;1253;96621;-69
2024/04/15 14:02:32;;;;;;;11.00;7.10;;;;;;;12.89;100.00;98213.94;105636;1258;109509;-71
2024/04/15 14:05:00;;;;;;;9.70;7.30;;;;;;;12.92;100.00;98210.60;105755;1255;96651;-69
2024/04/15 14:07:28;;;;;;;13.40;7.60;;;;;;;12.93;100.00;98209.86;105525;1258;96670;-70
2024/04/15 14:09:56;;;;;;;11.20;7.80;;;;;;;12.93;100.00;98211.30;105022;1257;109893;-69
2024/04/15 14:12:24;;;;;;;10.40;7.80;;;;;;;12.95;100.00;98211.46;105309;1257;96597;-70
2024/04/15 14:14:51;;;;;;;10.00;7.20;;;;;;;12.97;100.00;98206.06;105220;1257;108347;-70
2024/04/15 14:17:19;;;;;;;8.80;6.80;;;;;;;12.96;100.00;98210.65;105637;1256;99304;-70
2024/04/15 14:19:47;;;;;;;14.00;7.20;;;;;;;12.95;100.00;98200.52;105925;1254;97952;-70
2024/04/15 14:22:15;;;;;;;10.60;6.90;;;;;;;12.93;100.00;98196.11;105531;1255;111226;-69
2024/04/15 14:24:42;;;;;;;8.80;6.30;;;;;;;12.89;100.00;98189.38;105498;1256;97942;-70
2024/04/15 14:27:10;;;;;;;10.20;7.30;;;;;;;12.86;100.00;98184.39;106168;1254;107784;-69
2024/04/15 14:29:38;;;;;;;9.40;6.90;;;;;;;12.85;100.00;98178.62;105431;1256;97942;-73
2024/04/15 14:32:06;;;;;;;11.40;6.90;;;;;;;12.83;100.00;98165.30;105601;1257;98292;-69
2024/04/15 14:34:33;;;;;;;9.20;6.40;;;;;;;12.82;100.00;98160.21;105330;1257;111021;-70
2024/04/15 14:37:01;;;;;;;9.20;6.20;;;;;;;12.78;100.00;98157.56;105552;1254;98538;-71
2024/04/15 14:39:29;;;;;;;13.90;9.50;;;;;;;12.75;100.00;98158.59;105472;1255;107651;-70
2024/04/15 14:41:57;;;;;;;10.20;6.90;;;;;;;12.76;100.00;98155.91;105377;1258;97961;-70
2024/04/15 14:44:25;;;;;;;11.80;8.20;;;;;;;12.73;100.00;98158.36;105003;1257;99170;-70
2024/04/15 14:46:53;;;;;;;11.20;8.30;;;;;;;12.68;100.00;98158.84;105012;1258;111127;-69
2024/04/15 14:49:21;;;;;;;13.90;7.90;;;;;;;12.65;100.00;98152.59;105864;1255;99258;-70
2024/04/15 14:51:54;;;;;;;10.10;7.70;;;;;;;12.63;100.00;98135.97;105386;1265;107600;-69
2024/04/15 14:54:22;;;;;;;9.60;6.70;;;;;;;12.60;100.00;98130.45;107403;1255;97958;-74
2024/04/15 14:56:50;;;;;;;11.10;6.90;;;;;;;12.58;100.00;98136.56;105338;1258;98348;-69
2024/04/15 14:59:17;;;;;;;9.10;6.60;;;;;;;12.54;100.00;98135.34;106054;1256;111921;-70
2024/04/15 15:01:45;;;;;;;9.30;6.70;;;;;;;12.53;100.00;98125.27;105851;1257;97977;-69
2024/04/15 15:04:13;;;;;;;10.60;7.70;;;;;;;12.51;100.00;98122.05;105848;1257;106188;-70
2024/04/15 15:06:41;;;;;;;12.50;9.20;;;;;;;12.52;100.00;98122.46;104984;1257;99199;-69
2024/04/15 15:09:08;;;;;;;13.20;8.00;;;;;;;12.55;100.00;98125.77;105184;1258;97998;-69
2024/04/15 15:11:36;;;;;;;14.20;9.00;;;;;;;12.57;100.00;98128.95;106373;1254;111253;-70
2024/04/15 15:14:03;;;;;;;18.10;10.40;;;;;;;12.60;100.00;98140.80;105936;1255;97882;-70
2024/04/15 15:16:31;;;;;;;17.10;11.00;;;;;;;12.58;100.00;98148.41;105224;1254;107607;-70
2024/04/15 15:18:59;;;;;;;15.10;9.40;;;;;;;12.55;100.00;98154.96;105193;1254;97941;-69
2024/04/15 15:21:27;;;;;;;15.50;8.80;;;;;;;12.50;100.00;98151.10;105266;1258;97971;-69
2024/04/15 15:23:56;;;;;;;15.70;9.20;;;;;;;12.48;100.00;98148.98;105791;1255;111241;-71
2024/04/15 15:26:24;;;;;;;13.30;9.70;;;;;;;12.46;100.00;98145.45;105112;1254;97924;-72
2024/04/15 15:28:52;;;;;;;11.70;7.50;;;;;;;12.44;100.00;98139.45;105387;1257;107350;-70
2024/04/15 15:31:19;;;;;;;13.10;8.60;;;;;;;12.40;100.00;98133.45;106468;1254;98014;-69
2024/04/15 15:33:47;;;;;;;17.00;10.20;;;;;;;12.39;100.00;98142.27;105656;1256;98079;-73
2024/04/15 15:36:18;;;;;;;12.00;8.40;;;;;;;12.37;100.00;98148.64;105036;1257;110430;-70
2024/04/15 15:38:46;;;;;;;14.50;9.80;;;;;;;12.32;100.00;98150.49;105361;1258;97985;-69
2024/04/15 15:41:14;;;;;;;13.20;9.10;;;;;;;12.31;100.00;98155.21;105704;1256;107468;-69
2024/04/15 15:43:42;;;;;;;13.50;8.70;;;;;;;12.32;100.00;98158.56;105755;1255;97980;-70
2024/04/15 15:46:10;;;;;;;11.80;9.10;;;;;;;12.29;100.00;98154.20;105783;1255;97891;-69
2024/04/15 15:48:38;;;;;;;13.50;8.30;;;;;;;12.28;100.00;98153.02;105999;1257;111252;-70
2024/04/15 15:51:06;;;;;;;14.10;9.10;;;;;;;12.25;100.00;98148.66;106309;1257;97878;-69
2024/04/15 15:53:34;;;;;;;13.30;8.50;;;;;;;12.23;100.00;98140.52;105347;1255;107691;-69
2024/04/15 15:56:03;;;;;;;13.30;9.40;;;;;;;12.22;100.00;98148.65;106127;1254;98035;-69
2024/04/15 15:58:31;;;;;;;14.80;10.90;;;;;;;12.20;100.00;98146.78;105189;1254;99271;-71
2024/04/15 16:00:58;;;;;;;15.30;10.80;;;;;;;12.21;100.00;98138.90;105915;1255;111234;-70
2024/04/15 16:03:26;;;;;;;12.70;9.50;;;;;;;12.21;100.00;98143.19;105103;1257;97878;-68
2024/04/15 16:05:54;;;;;;;13.30;8.80;;;;;;;12.20;100.00;98140.55;106252;1257;109093;-69
2024/04/15 16:08:22;;;;;;;14.40;9.30;;;;;;;12.18;100.00;98137.23;105099;1256;98013;-69
2024/04/15 16:10:50;;;;;;;13.90;9.30;;;;;;;12.16;100.00;98139.02;105408;1257;97879;-69
2024/04/15 16:13:17;;;;;;;15.50;9.30;;;;;;;12.13;100.00;98131.16;105399;1257;111262;-71
2024/04/15 16:15:45;;;;;;;14.40;9.60;;;;;;;12.12;100.00;98128.29;105582;1257;97965;-70
2024/04/15 16:18:15;;;;;;;15.10;9.10;;;;;;;12.09;100.00;98118.69;105778;1256;107582;-70
2024/04/15 16:20:46;;;;;;;11.50;8.00;;;;;;;12.10;100.00;98094.43;105236;1254;98112;-69
2024/04/15 16:23:14;;;;;;;14.20;9.10;;;;;;;12.09;100.00;98068.41;105100;1257;98369;-70
2024/04/15 16:25:42;;;;;;;15.40;10.40;;;;;;;12.05;100.00;98082.08;105704;1257;110856;-69
2024/04/15 16:28:10;;;;;;;19.30;11.50;;;;;;;12.05;100.00;98077.33;105089;1259;97968;-70
2024/04/15 16:30:37;;;;;;;16.30;12.00;;;;;;;12.04;100.00;98073.11;105390;1257;107583;-68
2024/04/15 16:33:05;;;;;;;15.30;10.90;;;;;;;12.04;100.00;98065.12;105141;1257;97916;-69
2024/04/15 16:35:33;;;;;;;17.70;11.60;;;;;;;12.04;100.00;98056.95;105402;1259;97885;-72
2024/04/15 16:38:01;;;;;;;15.30;11.10;;;;;;;12.02;100.00;98052.36;105464;1257;111253;-69
2024/04/15 16:40:28;;;;;;;26.60;16.90;;;;;;;12.01;100.00;98051.64;105233;1259;98304;-68
2024/04/15 16:42:57;;;;;;;61.50;35.40;;;;;;;11.99;100.00;98041.51;105924;1256;106065;-74
2024/04/15 16:45:25;;;;;;;47.00;25.80;;;;;;;11.96;100.00;98017.87;105205;1256;97867;-69
2024/04/15 16:47:52;;;;;;;32.90;19.70;;;;;;;11.93;100.00;97988.52;105279;1256;98039;-70
2024/04/15 16:50:25;;;;;;;21.90;14.70;;;;;;;11.89;100.00;97999.89;105535;1257;111777;-69
2024/04/15 16:52:52;;;;;;;22.00;14.20;;;;;;;11.89;100.00;98031.90;107771;1254;97805;-70
2024/04/15 16:55:20;;;;;;;19.10;13.80;;;;;;;11.88;100.00;98052.80;105416;1258;107673;-70
2024/04/15 16:57:48;;;;;;;19.00;13.10;;;;;;;11.84;100.00;98031.86;105455;1257;98046;-71
2024/04/15 17:00:15;;;;;;;19.90;12.70;;;;;;;11.81;100.00;97988.08;105722;1257;97924;-68
2024/04/15 17:02:43;;;;;;;16.50;12.70;;;;;;;11.81;100.00;97999.80;106250;1257;111276;-67
2024/04/15 17:05:11;;;;;;;14.10;9.70;;;;;;;11.80;100.00;97985.13;105460;1257;98899;-66
2024/04/15 17:07:38;;;;;;;15.40;11.50;;;;;;;11.77;100.00;97989.48;106003;1255;107498;-70
2024/04/15 17:10:10;;;;;;;16.30;11.20;;;;;;;11.76;100.00;97976.65;105257;1255;98000;-68
2024/04/15 17:12:43;;;;;;;14.80;10.30;;;;;;;11.74;100.00;98004.30;105514;1257;97973;-70
2024/04/15 17:15:11;;;;;;;13.50;10.20;;;;;;;11.72;100.00;97979.83;105616;1258;110047;-67
2024/04/15 17:17:41;;;;;;;15.40;10.00;;;;;;;11.73;100.00;97954.56;105225;1256;98009;-68
2024/04/15 17:20:10;;;;;;;15.50;9.90;;;;;;;11.71;100.00;97987.39;105088;1256;107193;-68
2024/04/15 17:22:39;;;;;;;14.30;10.70;;;;;;;11.68;100.00;97993.01;106343;1256;98037;-69
2024/04/15 17:25:07;;;;;;;13.70;10.80;;;;;;;11.67;100.00;97974.46;105191;1257;97978;-69
2024/04/15 17:27:35;;;;;;;20.50;12.80;;;;;;;11.66;100.00;97980.25;105909;1257;111472;-69
2024/04/15 17:30:03;;;;;;;17.40;12.50;;;;;;;11.65;100.00;97982.81;104938;1259;97994;-67
2024/04/15 17:32:31;;;;;;;17.70;13.00;;;;;;;11.63;100.00;97978.55;105806;1255;107682;-68
2024/04/15 17:35:00;;;;;;;17.90;12.60;;;;;;;11.60;100.00;97961.98;105293;1258;97984;-68
2024/04/15 17:37:28;;;;;;;21.10;14.50;;;;;;;11.58;100.00;97951.01;107042;1256;97850;-69
2024/04/15 17:39:56;;;;;;;21.80;13.50;;;;;;;11.53;100.00;97956.40;105612;1255;110760;-71
2024/04/15 17:42:24;;;;;;;23.20;15.80;;;;;;;11.49;100.00;97969.24;105396;1254;97958;-72
2024/04/15 17:44:51;;;;;;;24.10;15.70;;;;;;;11.46;100.00;97987.61;105235;1255;107218;-72
2024/04/15 17:47:19;;;;;;;28.50;19.60;;;;;;;11.46;100.00;97987.08;107219;1255;97880;-71
2024/04/15 17:49:46;;;;;;;28.20;19.70;;;;;;;11.44;100.00;97984.95;106438;1255;97994;-69
2024/04/15 17:52:14;;;;;;;25.50;17.70;;;;;;;11.42;100.00;97995.02;105110;1256;111280;-73
2024/04/15 17:54:42;;;;;;;26.30;17.30;;;;;;;11.40;100.00;97993.99;105657;1257;97859;-70
2024/04/15 17:57:09;;;;;;;22.90;16.10;;;;;;;11.37;100.00;97982.39;106207;1255;107399;-75
2024/04/15 17:59:37;;;;;;;26.10;16.80;;;;;;;11.33;100.00;97986.50;105074;1258;98028;-70
2024/04/15 18:02:05;;;;;;;23.00;15.10;;;;;;;11.30;100.00;97976.77;105636;1253;98040;-70
2024/04/15 18:04:33;;;;;;;22.80;15.70;;;;;;;11.27;100.00;97968.25;105089;1259;110600;-71
2024/04/15 18:07:02;;;;;;;22.10;14.20;;;;;;;11.24;100.00;97971.68;105847;1253;98033;-70
2024/04/15 18:09:30;;;;;;;26.00;15.30;;;;;;;11.23;100.00;97968.48;105336;1257;108135;-70
2024/04/15 18:11:57;;;;;;;22.00;14.50;;;;;;;11.20;100.00;97951.56;108222;1253;95856;-70
2024/04/15 18:14:25;;;;;;;19.50;13.00;;;;;;;11.20;100.00;97939.27;106852;1256;97866;-70
2024/04/15 18:16:53;;;;;;;21.10;14.20;;;;;;;11.20;100.00;97938.21;105387;1255;110937;-71
2024/04/15 18:19:21;;;;;;;17.40;12.20;;;;;;;11.20;100.00;97945.64;105759;1258;97895;-70
2024/04/15 18:21:49;;;;;;;21.30;13.70;;;;;;;11.17;100.00;97926.06;108219;1253;106760;-70
2024/04/15 18:24:17;;;;;;;23.40;14.30;;;;;;;11.14;100.00;97909.05;105804;1256;97949;-69
2024/04/15 18:26:44;;;;;;;23.50;14.80;;;;;;;11.13;100.00;97914.02;105404;1257;97904;-70
2024/04/15 18:29:12;;;;;;;26.30;15.20;;;;;;;11.10;100.00;97910.23;106383;1255;111269;-68
2024/04/15 18:31:40;;;;;;;28.90;16.90;;;;;;;11.07;100.00;97919.39;106030;1257;98974;-69
2024/04/15 18:34:13;;;;;;;25.80;16.40;;;;;;;11.07;100.00;97914.39;107450;1254;107553;-71
2024/04/15 18:36:43;;;;;;;23.30;15.20;;;;;;;11.05;100.00;97907.95;105453;1257;98032;-69
2024/04/15 18:39:11;;;;;;;23.30;15.30;;;;;;;11.05;100.00;97914.70;105336;1257;98014;-69
2024/04/15 18:41:39;;;;;;;26.50;16.50;;;;;;;11.04;100.00;97908.27;105332;1257;111368;-67
2024/04/15 18:44:07;;;;;;;25.10;13.30;;;;;;;11.04;100.00;97913.39;106251;1257;98667;-69
2024/04/15 18:46:34;;;;;;;21.60;13.80;;;;;;;11.05;100.00;97907.83;106195;1257;107395;-70
2024/04/15 18:49:02;;;;;;;26.50;15.50;;;;;;;11.04;100.00;97922.44;106253;1257;97968;-69
2024/04/15 18:51:30;;;;;;;25.00;14.50;;;;;;;11.05;100.00;97913.80;105672;1255;97903;-70
2024/04/15 18:53:58;;;;;;;24.70;13.90;;;;;;;11.06;100.00;97894.20;105708;1257;111282;-70
2024/04/15 18:56:25;;;;;;;24.90;14.00;;;;;;;11.03;100.00;97883.73;106233;1257;97972;-71
2024/04/15 18:58:53;;;;;;;23.40;13.60;;;;;;;11.00;100.00;97876.88;106278;1253;106650;-72
2024/04/15 19:01:20;;;;;;;23.50;14.40;;;;;;;10.98;100.00;97888.73;105818;1257;98023;-70
2024/04/15 19:03:48;;;;;;;22.20;14.20;;;;;;;11.00;100.00;97890.33;105379;1260;98760;-70
2024/04/15 19:06:16;;;;;;;23.60;13.90;;;;;;;11.01;100.00;97871.14;105636;1257;110865;-75
2024/04/15 19:08:44;;;;;;;24.80;13.70;;;;;;;10.99;100.00;97871.64;105950;1258;98034;-69
2024/04/15 19:11:11;;;;;;;25.00;14.90;;;;;;;10.97;100.00;97870.73;106138;1256;107735;-70
2024/04/15 19:13:39;;;;;;;25.70;14.70;;;;;;;10.96;100.00;97870.67;105803;1257;97975;-70
2024/04/15 19:16:07;;;;;;;23.50;15.30;;;;;;;10.97;100.00;97854.85;105708;1257;97966;-69
2024/04/15 19:18:36;;;;;;;26.10;15.10;;;;;;;10.95;100.00;97857.30;105569;1257;110361;-69
2024/04/15 19:21:03;;;;;;;27.50;16.50;;;;;;;10.91;100.00;97867.10;105705;1257;97946;-70
2024/04/15 19:23:31;;;;;;;26.00;14.50;;;;;;;10.88;100.00;97888.95;105447;1258;106130;-70
2024/04/15 19:25:59;;;;;;;24.50;15.30;;;;;;;10.84;100.00;97885.25;104991;1258;97935;-70
2024/04/15 19:28:27;;;;;;;26.80;14.90;;;;;;;10.82;100.00;97862.98;105708;1258;99387;-68
2024/04/15 19:30:54;;;;;;;24.90;14.30;;;;;;;10.81;100.00;97849.15;105107;1253;111260;-69
2024/04/15 19:33:22;;;;;;;29.40;16.00;;;;;;;10.83;100.00;97859.43;105232;1260;99288;-69
2024/04/15 19:35:50;;;;;;;27.60;16.00;;;;;;;10.84;100.00;97860.96;105621;1253;109030;-70
2024/04/15 19:38:18;;;;;;;30.90;17.80;;;;;;;10.83;100.00;97839.92;105139;1253;99236;-70
2024/04/15 19:40:46;;;;;;;25.90;15.20;;;;;;;10.83;100.00;97841.20;105723;1257;97991;-69
2024/04/15 19:43:13;;;;;;;28.30;14.80;;;;;;;10.82;100.00;97824.23;105739;1254;111307;-73
2024/04/15 19:45:41;;;;;;;28.00;14.90;;;;;;;10.82;100.00;97801.26;107054;1257;97953;-70
2024/04/15 19:48:09;;;;;;;30.00;14.80;;;;;;;10.80;100.00;97794.11;105654;1257;107274;-69
2024/04/15 19:50:37;;;;;;;25.80;13.20;;;;;;;10.80;100.00;97788.98;106017;1257;98016;-70
2024/04/15 19:53:04;;;;;;;25.60;14.20;;;;;;;10.80;100.00;97806.73;105544;1257;98434;-68
2024/04/15 19:55:32;;;;;;;30.50;13.60;;;;;;;10.83;100.00;97813.05;106640;1254;110547;-73
2024/04/15 19:58:00;;;;;;;25.30;12.20;;;;;;;10.83;100.00;97795.12;105237;1253;97954;-71
2024/04/15 20:00:31;;;;;;;24.60;11.60;;;;;;;10.80;100.00;97787.75;106601;1258;107598;-69
2024/04/15 20:02:59;;;;;;;27.00;12.80;;;;;;;10.76;100.00;97787.46;105433;1257;99216;-69
2024/04/15 20:05:28;;;;;;;27.80;13.40;;;;;;;10.75;100.00;97787.73;106055;1256;98028;-71
2024/04/15 20:07:55;;;;;;;27.90;13.00;;;;;;;10.73;100.00;97793.00;106832;1256;110867;-71
2024/04/15 20:10:35;;;;;;;28.30;14.50;;;;;;;10.75;100.00;97798.54;105372;1253;97872;-74
2024/04/15 20:13:03;;;;;;;33.00;15.40;;;;;;;10.77;100.00;97797.26;105641;1258;107226;-69
2024/04/15 20:15:31;;;;;;;37.10;15.70;;;;;;;10.79;100.00;97795.45;105594;1256;97949;-72
2024/04/15 20:18:21;;;;;;;27.00;14.70;;;;;;;10.83;100.00;97785.48;105743;1257;98109;-71
2024/04/15 20:20:49;;;;;;;27.80;14.30;;;;;;;10.85;100.00;97792.02;105260;1259;111241;-72
2024/04/15 20:23:17;;;;;;;31.30;14.60;;;;;;;10.88;100.00;97798.68;105521;1253;98044;-70
2024/04/15 20:25:46;;;;;;;26.90;13.80;;;;;;;10.91;100.00;97798.46;105565;1257;106249;-69
2024/04/15 20:28:14;;;;;;;31.60;12.90;;;;;;;10.92;100.00;97776.00;105990;1258;97949;-71
2024/04/15 20:30:42;;;;;;;27.40;13.80;;;;;;;10.92;100.00;97765.92;105327;1257;97945;-70
2024/04/15 20:33:10;;;;;;;30.40;14.70;;;;;;;10.92;100.00;97767.16;106595;1257;111249;-70
2024/04/15 20:35:37;;;;;;;32.20;14.40;;;;;;;10.92;100.00;97755.21;105558;1258;99291;-70
2024/04/15 20:38:05;;;;;;;29.60;13.70;;;;;;;10.94;100.00;97751.16;105706;1256;106673;-70
2024/04/15 20:40:33;;;;;;;25.70;13.10;;;;;;;10.93;100.00;97746.63;105419;1256;97964;-76
2024/04/15 20:43:07;;;;;;;28.30;15.80;;;;;;;10.92;100.00;97749.93;106754;1257;97962;-69
2024/04/15 20:45:35;;;;;;;38.20;18.40;;;;;;;10.90;100.00;97751.33;105676;1260;111195;-69
2024/04/15 20:48:04;;;;;;;32.90;16.50;;;;;;;10.92;100.00;97748.33;105525;1258;99289;-69
2024/04/15 20:50:32;;;;;;;31.30;15.00;;;;;;;10.95;100.00;97743.95;105626;1258;107315;-69
2024/04/15 20:53:03;;;;;;;32.00;16.20;;;;;;;10.97;100.00;97743.92;105366;1258;97956;-68
2024/04/15 20:55:32;;;;;;;31.50;15.90;;;;;;;10.98;100.00;97749.52;106195;1258;99263;-70
2024/04/15 20:58:00;;;;;;;34.20;16.60;;;;;;;10.98;100.00;97758.36;105664;1258;111215;-69
2024/04/15 21:00:27;;;;;;;35.00;16.90;;;;;;;10.98;100.00;97751.11;106151;1253;98053;-71
2024/04/15 21:03:00;;;;;;;38.60;16.60;;;;;;;10.97;100.00;97745.88;105819;1253;107617;-69
2024/04/15 21:05:28;;;;;;;33.50;16.30;;;;;;;10.97;100.00;97738.98;105130;1257;98564;-69
2024/04/15 21:07:55;;;;;;;32.60;14.90;;;;;;;10.98;100.00;97727.40;105127;1253;99310;-69
2024/04/15 21:10:23;;;;;;;32.90;16.60;;;;;;;10.97;100.00;97713.81;105529;1258;110381;-70
2024/04/15 21:12:51;;;;;;;35.00;15.60;;;;;;;10.96;100.00;97707.65;105636;1258;98871;-69
2024/04/15 21:15:19;;;;;;;42.50;19.60;;;;;;;10.97;100.00;97705.44;106787;1254;107698;-70